CheckWX is a tool to help pilots better visualize weather data.  It is not intended as a substitute for an official pre-flight weather briefing.

12:20:06 UTC

ENHE METAR
Heidrun Airport
Norway
Current

30 mins ago

ENHE 181150Z 21037KT 9999 FEW015 BKN030 07/04 Q0992 W///S5
Observed
Feb-18 @ 11:50 UTC
Wind
  • 210° at 37 KTS
Visibility
10,000+ meters
Flight Rules
MVFR
Cloud Levels
  • Few at 1,500' AGL
  • Broken at 3,000' AGL
Temperature
C / 45°F
Dewpoint
C / 39°F
Humidity
81%
Altimeter
29.29" Hg
Pressure
991.92 hPa
Previous

60 mins ago

ENHE 181120Z 21036KT 6000 -SHRA FEW015 BKN065 07/05 Q0992 W///S6
Observed
Feb-18 @ 11:20 UTC
Wind
  • 210° at 36 KTS
Visibility
6,003 meters
Flight Rules
MVFR
Conditions
Light Rain
Cloud Levels
  • Few at 1,500' AGL
  • Broken at 6,500' AGL
Temperature
C / 45°F
Dewpoint
C / 41°F
Humidity
87%
Altimeter
29.29" Hg
Pressure
991.92 hPa
Previous

2 hours ago

ENHE 181050Z 22037KT 7000 -SHRA FEW015 BKN050 08/05 Q0993 W///S5
Observed
Feb-18 @ 10:50 UTC
Wind
  • 220° at 37 KTS
Visibility
7,001 meters
Flight Rules
MVFR
Conditions
Light Rain
Cloud Levels
  • Few at 1,500' AGL
  • Broken at 5,000' AGL
Temperature
C / 46°F
Dewpoint
C / 41°F
Humidity
82%
Altimeter
29.32" Hg
Pressure
992.92 hPa